Time;durP1;ratioP1;P1;durP2;ratioP2;P2;SDS_P1;SDS_P2;PMS_P1;PMS_P2;Temp;Humidity;BMP_temperature;BMP_pressure;BME280_temperature;BME280_humidity;BME280_pressure;Samples;Min_cycle;Max_cycle;Signal;HPM_P1;HPM_P2
2023/03/12 00:02:54;;;;;;;19.90;12.50;;;;;;;-128.00;-1.00;-1.00;133728;1275;1002317;-81
2023/03/12 00:05:56;;;;;;;19.40;11.20;;;;;;;-128.00;-1.00;-1.00;133809;1274;1002692;-83
2023/03/12 00:09:00;;;;;;;16.50;11.50;;;;;;;-128.00;-1.00;-1.00;133821;1275;1002133;-82
2023/03/12 00:12:03;;;;;;;17.60;10.50;;;;;;;-128.00;-1.00;-1.00;133755;1275;1002505;-82
2023/03/12 00:15:05;;;;;;;16.60;10.50;;;;;;;-128.00;-1.00;-1.00;133707;1275;1002446;-82
2023/03/12 00:18:08;;;;;;;18.80;11.30;;;;;;;-128.00;-1.00;-1.00;133726;1275;1002462;-82
2023/03/12 00:21:10;;;;;;;18.00;10.70;;;;;;;-128.00;-1.00;-1.00;133696;1274;1002970;-82
2023/03/12 00:24:13;;;;;;;15.00;10.40;;;;;;;-128.00;-1.00;-1.00;133755;1275;1002915;-82
2023/03/12 00:27:15;;;;;;;18.00;10.70;;;;;;;-128.00;-1.00;-1.00;133780;1275;1001875;-82
2023/03/12 00:30:18;;;;;;;21.50;11.90;;;;;;;-128.00;-1.00;-1.00;133752;1274;1002192;-82
2023/03/12 00:33:20;;;;;;;18.00;11.90;;;;;;;-128.00;-1.00;-1.00;133768;1274;1003025;-81
2023/03/12 00:36:23;;;;;;;17.10;11.00;;;;;;;-128.00;-1.00;-1.00;133710;1274;1002605;-82
2023/03/12 00:39:26;;;;;;;21.70;11.60;;;;;;;-128.00;-1.00;-1.00;133748;1274;1002088;-82
2023/03/12 00:42:28;;;;;;;16.20;11.60;;;;;;;-128.00;-1.00;-1.00;133698;1274;1001878;-81
2023/03/12 00:45:31;;;;;;;24.40;12.20;;;;;;;-128.00;-1.00;-1.00;133824;1274;1002287;-82
2023/03/12 00:48:33;;;;;;;15.80;10.80;;;;;;;-128.00;-1.00;-1.00;133811;1274;1002584;-82
2023/03/12 00:51:35;;;;;;;18.10;11.50;;;;;;;-128.00;-1.00;-1.00;133762;1274;1002408;-81
2023/03/12 00:54:38;;;;;;;19.30;12.00;;;;;;;-128.00;-1.00;-1.00;133702;1274;1002488;-81
2023/03/12 00:57:40;;;;;;;15.20;11.50;;;;;;;-128.00;-1.00;-1.00;133721;1274;1002368;-81
2023/03/12 01:00:43;;;;;;;17.20;11.60;;;;;;;-128.00;-1.00;-1.00;133666;1275;1002854;-82
2023/03/12 01:03:49;;;;;;;21.00;11.90;;;;;;;-128.00;-1.00;-1.00;133677;1275;1002215;-82
2023/03/12 01:06:51;;;;;;;21.00;11.30;;;;;;;-128.00;-1.00;-1.00;133765;1275;1002494;-81
2023/03/12 01:09:56;;;;;;;19.90;11.90;;;;;;;-128.00;-1.00;-1.00;133737;1275;1001728;-82
2023/03/12 01:12:59;;;;;;;18.60;13.50;;;;;;;-128.00;-1.00;-1.00;133620;1275;1002599;-82
2023/03/12 01:16:01;;;;;;;16.90;11.80;;;;;;;-128.00;-1.00;-1.00;133775;1275;1002682;-83
2023/03/12 01:19:04;;;;;;;15.50;10.90;;;;;;;-128.00;-1.00;-1.00;133788;1275;1002856;-82
2023/03/12 01:22:06;;;;;;;17.40;12.60;;;;;;;-128.00;-1.00;-1.00;133864;1275;1003139;-82
2023/03/12 01:25:09;;;;;;;18.50;12.90;;;;;;;-128.00;-1.00;-1.00;133850;1275;1002306;-82
2023/03/12 01:28:11;;;;;;;23.20;14.10;;;;;;;-128.00;-1.00;-1.00;133899;1275;1002521;-81
2023/03/12 01:31:13;;;;;;;22.20;14.20;;;;;;;-128.00;-1.00;-1.00;133789;1275;1002288;-82
2023/03/12 01:34:16;;;;;;;20.70;13.10;;;;;;;-128.00;-1.00;-1.00;133769;1275;1002349;-82
2023/03/12 01:37:18;;;;;;;21.80;12.40;;;;;;;-128.00;-1.00;-1.00;133832;1275;1002331;-82
2023/03/12 01:40:24;;;;;;;21.30;12.60;;;;;;;-128.00;-1.00;-1.00;133698;1275;1002228;-82
2023/03/12 01:43:26;;;;;;;24.80;13.40;;;;;;;-128.00;-1.00;-1.00;133837;1275;1001620;-83
2023/03/12 01:46:29;;;;;;;19.40;13.40;;;;;;;-128.00;-1.00;-1.00;133792;1275;1002536;-82
2023/03/12 01:49:31;;;;;;;20.90;13.90;;;;;;;-128.00;-1.00;-1.00;133782;1275;1002763;-81
2023/03/12 01:52:33;;;;;;;23.60;13.90;;;;;;;-128.00;-1.00;-1.00;133792;1275;1002245;-83
2023/03/12 01:55:36;;;;;;;21.70;14.00;;;;;;;-128.00;-1.00;-1.00;133815;1275;1002968;-82
2023/03/12 01:58:38;;;;;;;27.40;14.80;;;;;;;-128.00;-1.00;-1.00;133767;1275;1002393;-82
2023/03/12 02:01:41;;;;;;;26.70;16.00;;;;;;;-128.00;-1.00;-1.00;133764;1275;1002871;-83
2023/03/12 02:04:43;;;;;;;27.40;16.50;;;;;;;-128.00;-1.00;-1.00;133691;1275;1002419;-82
2023/03/12 02:07:45;;;;;;;24.50;16.50;;;;;;;-128.00;-1.00;-1.00;133820;1275;1002772;-82
2023/03/12 02:10:48;;;;;;;24.80;16.10;;;;;;;-128.00;-1.00;-1.00;133845;1275;1003012;-82
2023/03/12 02:13:50;;;;;;;22.60;14.80;;;;;;;-128.00;-1.00;-1.00;133739;1275;1001937;-81
2023/03/12 02:16:53;;;;;;;26.20;16.30;;;;;;;-128.00;-1.00;-1.00;133664;1275;1002392;-82
2023/03/12 02:19:55;;;;;;;24.40;15.70;;;;;;;-128.00;-1.00;-1.00;133776;1275;1002681;-82
2023/03/12 02:22:58;;;;;;;24.00;14.10;;;;;;;-128.00;-1.00;-1.00;133774;1275;1002111;-82
2023/03/12 02:26:00;;;;;;;23.20;14.40;;;;;;;-128.00;-1.00;-1.00;133723;1275;1002696;-82
2023/03/12 02:29:02;;;;;;;21.10;14.40;;;;;;;-128.00;-1.00;-1.00;133778;1275;1002208;-82
2023/03/12 02:32:05;;;;;;;18.60;13.50;;;;;;;-128.00;-1.00;-1.00;133654;1274;1002442;-82
2023/03/12 02:35:08;;;;;;;20.80;14.70;;;;;;;-128.00;-1.00;-1.00;133710;1275;1001780;-82
2023/03/12 02:38:10;;;;;;;21.60;14.60;;;;;;;-128.00;-1.00;-1.00;133789;1275;1002311;-82
2023/03/12 02:41:12;;;;;;;22.90;15.00;;;;;;;-128.00;-1.00;-1.00;133700;1275;1001845;-82
2023/03/12 02:44:15;;;;;;;25.00;15.50;;;;;;;-128.00;-1.00;-1.00;133780;1275;1002459;-82
2023/03/12 02:47:17;;;;;;;24.80;16.20;;;;;;;-128.00;-1.00;-1.00;133734;1275;1002502;-82
2023/03/12 02:50:20;;;;;;;21.50;14.30;;;;;;;-128.00;-1.00;-1.00;133752;1275;1002590;-82
2023/03/12 02:53:22;;;;;;;24.10;15.10;;;;;;;-128.00;-1.00;-1.00;133740;1275;1002327;-83
2023/03/12 02:56:25;;;;;;;22.30;14.40;;;;;;;-128.00;-1.00;-1.00;133596;1275;1002150;-83
2023/03/12 02:59:27;;;;;;;26.10;15.40;;;;;;;-128.00;-1.00;-1.00;133757;1275;1003076;-82
2023/03/12 03:02:30;;;;;;;22.20;14.60;;;;;;;-128.00;-1.00;-1.00;133647;1275;1002160;-82
2023/03/12 03:05:35;;;;;;;26.00;16.30;;;;;;;-128.00;-1.00;-1.00;133680;1275;1002460;-82
2023/03/12 03:08:38;;;;;;;22.30;14.60;;;;;;;-128.00;-1.00;-1.00;133781;1274;1002033;-82
2023/03/12 03:11:40;;;;;;;22.20;15.30;;;;;;;-128.00;-1.00;-1.00;133683;1275;1002259;-81
2023/03/12 03:14:43;;;;;;;20.90;13.50;;;;;;;-128.00;-1.00;-1.00;133703;1275;1002246;-81
2023/03/12 03:17:45;;;;;;;21.00;13.40;;;;;;;-128.00;-1.00;-1.00;133824;1275;1002491;-82
2023/03/12 03:20:48;;;;;;;21.70;12.90;;;;;;;-128.00;-1.00;-1.00;133796;1275;1002125;-82
2023/03/12 03:23:50;;;;;;;16.30;11.70;;;;;;;-128.00;-1.00;-1.00;133581;1274;1002601;-81
2023/03/12 03:26:53;;;;;;;23.40;13.00;;;;;;;-128.00;-1.00;-1.00;133765;1275;1001993;-82
2023/03/12 03:29:55;;;;;;;21.60;13.30;;;;;;;-128.00;-1.00;-1.00;133844;1275;1002189;-81
2023/03/12 03:32:58;;;;;;;19.60;12.30;;;;;;;-128.00;-1.00;-1.00;133646;1275;1002019;-82
2023/03/12 03:36:00;;;;;;;17.50;12.00;;;;;;;-128.00;-1.00;-1.00;133666;1275;1002755;-81
2023/03/12 03:39:03;;;;;;;17.30;12.00;;;;;;;-128.00;-1.00;-1.00;133743;1275;1002148;-82
2023/03/12 03:42:06;;;;;;;14.40;10.80;;;;;;;-128.00;-1.00;-1.00;133693;1274;1002603;-81
2023/03/12 03:45:09;;;;;;;20.20;11.40;;;;;;;-128.00;-1.00;-1.00;133733;1275;1002437;-81
2023/03/12 03:48:11;;;;;;;15.70;11.00;;;;;;;-128.00;-1.00;-1.00;133766;1275;1002686;-83
2023/03/12 03:51:14;;;;;;;19.40;11.30;;;;;;;-128.00;-1.00;-1.00;133756;1275;1002426;-82
2023/03/12 03:54:16;;;;;;;19.70;11.80;;;;;;;-128.00;-1.00;-1.00;133779;1275;1002729;-81
2023/03/12 03:57:19;;;;;;;15.00;10.90;;;;;;;-128.00;-1.00;-1.00;133715;1275;1002686;-82
2023/03/12 04:00:21;;;;;;;17.00;10.40;;;;;;;-128.00;-1.00;-1.00;133777;1274;1002638;-82
2023/03/12 04:03:23;;;;;;;17.10;11.60;;;;;;;-128.00;-1.00;-1.00;133790;1274;1002067;-82
2023/03/12 04:06:26;;;;;;;18.00;10.70;;;;;;;-128.00;-1.00;-1.00;133765;1274;1002596;-81
2023/03/12 04:09:29;;;;;;;17.80;10.80;;;;;;;-128.00;-1.00;-1.00;133795;1274;1002121;-82
2023/03/12 04:12:31;;;;;;;17.60;10.90;;;;;;;-128.00;-1.00;-1.00;133656;1274;1002392;-82
2023/03/12 04:15:34;;;;;;;17.50;10.60;;;;;;;-128.00;-1.00;-1.00;133759;1274;1002313;-82
2023/03/12 04:18:36;;;;;;;18.00;10.20;;;;;;;-128.00;-1.00;-1.00;133771;1274;1001569;-83
2023/03/12 04:21:39;;;;;;;16.70;10.80;;;;;;;-128.00;-1.00;-1.00;133712;1274;1001991;-82
2023/03/12 04:24:41;;;;;;;17.00;10.00;;;;;;;-128.00;-1.00;-1.00;133828;1274;1002504;-81
2023/03/12 04:27:44;;;;;;;11.90;9.30;;;;;;;-128.00;-1.00;-1.00;133799;1275;1002336;-81
2023/03/12 04:30:49;;;;;;;14.10;9.10;;;;;;;-128.00;-1.00;-1.00;133795;1275;1002207;-81
2023/03/12 04:33:51;;;;;;;21.40;12.60;;;;;;;-128.00;-1.00;-1.00;133654;1275;1002421;-81
2023/03/12 04:36:54;;;;;;;18.60;10.40;;;;;;;-128.00;-1.00;-1.00;133800;1275;1002442;-81
2023/03/12 04:39:56;;;;;;;19.20;10.80;;;;;;;-128.00;-1.00;-1.00;133745;1274;1002523;-82
2023/03/12 04:42:59;;;;;;;22.10;13.10;;;;;;;-128.00;-1.00;-1.00;133843;1274;1003036;-82
2023/03/12 04:46:01;;;;;;;24.30;13.00;;;;;;;-128.00;-1.00;-1.00;133767;1274;1002218;-81
2023/03/12 04:49:03;;;;;;;21.00;11.90;;;;;;;-128.00;-1.00;-1.00;133781;1275;1003287;-82
2023/03/12 04:52:06;;;;;;;18.60;11.50;;;;;;;-128.00;-1.00;-1.00;133767;1275;1002462;-82
2023/03/12 04:55:08;;;;;;;25.70;11.30;;;;;;;-128.00;-1.00;-1.00;133706;1274;1002678;-81
2023/03/12 04:58:11;;;;;;;25.50;13.80;;;;;;;-128.00;-1.00;-1.00;133795;1274;1002426;-82
2023/03/12 05:01:13;;;;;;;21.70;11.30;;;;;;;-128.00;-1.00;-1.00;133758;1274;1002430;-82
2023/03/12 05:04:16;;;;;;;18.90;11.90;;;;;;;-128.00;-1.00;-1.00;133686;1274;1002912;-81
2023/03/12 05:07:18;;;;;;;19.00;12.10;;;;;;;-128.00;-1.00;-1.00;133722;1274;1002333;-81
2023/03/12 05:10:21;;;;;;;18.80;12.10;;;;;;;-128.00;-1.00;-1.00;133776;1274;1002466;-83
2023/03/12 05:13:23;;;;;;;18.80;11.60;;;;;;;-128.00;-1.00;-1.00;133691;1274;1002288;-82
2023/03/12 05:16:26;;;;;;;23.90;12.80;;;;;;;-128.00;-1.00;-1.00;133776;1274;1002773;-82
2023/03/12 05:19:29;;;;;;;25.80;14.20;;;;;;;-128.00;-1.00;-1.00;133712;1274;1002796;-82
2023/03/12 05:22:31;;;;;;;24.70;13.30;;;;;;;-128.00;-1.00;-1.00;133750;1274;1002353;-82
2023/03/12 05:25:33;;;;;;;20.10;13.90;;;;;;;-128.00;-1.00;-1.00;133734;1274;1002319;-81
2023/03/12 05:28:36;;;;;;;18.00;13.10;;;;;;;-128.00;-1.00;-1.00;133771;1275;1002575;-81
2023/03/12 05:31:40;;;;;;;22.30;14.50;;;;;;;-128.00;-1.00;-1.00;133648;1274;1002822;-82
2023/03/12 05:34:43;;;;;;;21.90;13.60;;;;;;;-128.00;-1.00;-1.00;133773;1274;1002466;-82
2023/03/12 05:37:45;;;;;;;28.20;15.40;;;;;;;-128.00;-1.00;-1.00;133677;1274;1002280;-82
2023/03/12 05:40:48;;;;;;;24.30;13.00;;;;;;;-128.00;-1.00;-1.00;133762;1274;1002695;-82
2023/03/12 05:43:53;;;;;;;21.70;12.40;;;;;;;-128.00;-1.00;-1.00;133707;1274;1002076;-82
2023/03/12 05:46:55;;;;;;;23.50;13.60;;;;;;;-128.00;-1.00;-1.00;133803;1274;1001906;-83
2023/03/12 05:50:00;;;;;;;17.30;11.70;;;;;;;-128.00;-1.00;-1.00;133777;1274;1002158;-81
2023/03/12 05:53:05;;;;;;;19.10;12.00;;;;;;;-128.00;-1.00;-1.00;133713;1274;1002732;-81
2023/03/12 05:56:07;;;;;;;24.50;13.20;;;;;;;-128.00;-1.00;-1.00;133825;1274;1002532;-83
2023/03/12 05:59:10;;;;;;;19.20;12.50;;;;;;;-128.00;-1.00;-1.00;133814;1274;1002723;-81
2023/03/12 06:02:15;;;;;;;24.50;12.40;;;;;;;-128.00;-1.00;-1.00;133772;1274;1002738;-81
2023/03/12 06:05:17;;;;;;;17.90;11.90;;;;;;;-128.00;-1.00;-1.00;133793;1275;1002812;-81
2023/03/12 06:08:20;;;;;;;19.60;12.10;;;;;;;-128.00;-1.00;-1.00;133673;1274;1002747;-82
2023/03/12 06:11:25;;;;;;;23.90;12.60;;;;;;;-128.00;-1.00;-1.00;133789;1274;1002370;-83
2023/03/12 06:14:27;;;;;;;20.40;11.30;;;;;;;-128.00;-1.00;-1.00;133764;1274;1002354;-82
2023/03/12 06:17:30;;;;;;;19.50;10.50;;;;;;;-128.00;-1.00;-1.00;133775;1274;1002351;-82
2023/03/12 06:20:33;;;;;;;20.50;11.10;;;;;;;-128.00;-1.00;-1.00;133799;1275;1002440;-81
2023/03/12 06:23:35;;;;;;;13.50;9.90;;;;;;;-128.00;-1.00;-1.00;133755;1275;1002213;-81
2023/03/12 06:26:39;;;;;;;16.10;10.00;;;;;;;-128.00;-1.00;-1.00;133750;1274;1002054;-82
2023/03/12 06:29:41;;;;;;;24.30;9.80;;;;;;;-128.00;-1.00;-1.00;133815;1274;1002586;-82
2023/03/12 06:32:43;;;;;;;14.80;9.70;;;;;;;-128.00;-1.00;-1.00;133805;1275;1002524;-82
2023/03/12 06:35:46;;;;;;;15.50;9.10;;;;;;;-128.00;-1.00;-1.00;133766;1275;1002606;-83
2023/03/12 06:38:49;;;;;;;17.60;10.00;;;;;;;-128.00;-1.00;-1.00;133743;1275;1002523;-81
2023/03/12 06:41:51;;;;;;;18.20;9.30;;;;;;;-128.00;-1.00;-1.00;133752;1275;1002119;-82
2023/03/12 06:44:53;;;;;;;16.10;9.00;;;;;;;-128.00;-1.00;-1.00;133765;1275;1002041;-82
2023/03/12 06:47:56;;;;;;;17.80;9.10;;;;;;;-128.00;-1.00;-1.00;133743;1275;1002376;-82
2023/03/12 06:50:58;;;;;;;14.90;9.00;;;;;;;-128.00;-1.00;-1.00;133810;1275;1002393;-82
2023/03/12 06:54:01;;;;;;;15.40;8.70;;;;;;;-128.00;-1.00;-1.00;133729;1275;1002495;-82
2023/03/12 06:57:03;;;;;;;16.70;8.80;;;;;;;-128.00;-1.00;-1.00;133825;1275;1002126;-82
2023/03/12 07:00:06;;;;;;;16.50;9.10;;;;;;;-128.00;-1.00;-1.00;133729;1275;1002546;-82
2023/03/12 07:03:09;;;;;;;13.50;8.40;;;;;;;-128.00;-1.00;-1.00;133809;1275;1002344;-82
2023/03/12 07:06:11;;;;;;;16.60;7.90;;;;;;;-128.00;-1.00;-1.00;133752;1275;1002387;-82
2023/03/12 07:09:14;;;;;;;17.70;8.20;;;;;;;-128.00;-1.00;-1.00;133740;1275;1002890;-82
2023/03/12 07:12:16;;;;;;;14.70;8.30;;;;;;;-128.00;-1.00;-1.00;133498;1275;1003033;-81
2023/03/12 07:15:19;;;;;;;12.60;8.50;;;;;;;-128.00;-1.00;-1.00;133687;1275;1002266;-82
2023/03/12 07:18:21;;;;;;;16.30;7.70;;;;;;;-128.00;-1.00;-1.00;133715;1275;1003000;-82
2023/03/12 07:21:24;;;;;;;13.90;7.40;;;;;;;-128.00;-1.00;-1.00;133709;1275;1002567;-81
2023/03/12 07:24:26;;;;;;;13.20;7.00;;;;;;;-128.00;-1.00;-1.00;133796;1275;1002211;-82
2023/03/12 07:27:28;;;;;;;14.70;8.10;;;;;;;-128.00;-1.00;-1.00;133825;1275;1002483;-83
2023/03/12 07:30:32;;;;;;;15.70;7.60;;;;;;;-128.00;-1.00;-1.00;133685;1275;1002294;-82
2023/03/12 07:33:34;;;;;;;22.60;9.20;;;;;;;-128.00;-1.00;-1.00;133765;1275;1002096;-83
2023/03/12 07:36:37;;;;;;;15.70;8.30;;;;;;;-128.00;-1.00;-1.00;133779;1275;1002049;-83
2023/03/12 07:39:39;;;;;;;16.40;8.20;;;;;;;-128.00;-1.00;-1.00;133773;1275;1002494;-84
2023/03/12 07:42:42;;;;;;;13.20;6.60;;;;;;;-128.00;-1.00;-1.00;133778;1275;1002978;-84
2023/03/12 07:45:44;;;;;;;11.70;6.90;;;;;;;-128.00;-1.00;-1.00;133727;1275;1002551;-84
2023/03/12 07:48:47;;;;;;;11.70;6.70;;;;;;;-128.00;-1.00;-1.00;133724;1275;1002193;-84
2023/03/12 07:51:49;;;;;;;10.90;6.20;;;;;;;-128.00;-1.00;-1.00;133711;1274;1002925;-84
2023/03/12 07:54:53;;;;;;;11.10;6.20;;;;;;;-128.00;-1.00;-1.00;133832;1275;1002396;-84
2023/03/12 07:57:57;;;;;;;12.60;6.70;;;;;;;-128.00;-1.00;-1.00;133593;1275;1002466;-83
2023/03/12 08:00:59;;;;;;;8.50;6.20;;;;;;;-128.00;-1.00;-1.00;133724;1275;1002734;-83
2023/03/12 08:04:02;;;;;;;15.80;9.20;;;;;;;-128.00;-1.00;-1.00;133762;1274;1002676;-83
2023/03/12 08:07:04;;;;;;;14.80;9.00;;;;;;;-128.00;-1.00;-1.00;133765;1274;1002603;-85
2023/03/12 08:10:06;;;;;;;13.80;7.30;;;;;;;-128.00;-1.00;-1.00;133788;1274;1002180;-85
2023/03/12 08:13:09;;;;;;;17.10;7.50;;;;;;;-128.00;-1.00;-1.00;133666;1274;1002974;-84
2023/03/12 08:16:14;;;;;;;14.30;7.80;;;;;;;-128.00;-1.00;-1.00;133801;1274;1002597;-85
2023/03/12 08:19:17;;;;;;;15.80;6.70;;;;;;;-128.00;-1.00;-1.00;133726;1274;1002173;-85
2023/03/12 08:22:19;;;;;;;8.50;6.00;;;;;;;-128.00;-1.00;-1.00;133793;1274;1002358;-86
2023/03/12 08:25:23;;;;;;;17.40;7.70;;;;;;;-128.00;-1.00;-1.00;133706;1259;1002347;-85
2023/03/12 08:28:25;;;;;;;14.70;7.80;;;;;;;-128.00;-1.00;-1.00;133620;1274;1002527;-85
2023/03/12 08:31:28;;;;;;;9.80;6.30;;;;;;;-128.00;-1.00;-1.00;133720;1274;1002355;-86
2023/03/12 08:34:30;;;;;;;12.60;7.00;;;;;;;-128.00;-1.00;-1.00;133401;1274;1002121;-84
2023/03/12 08:37:33;;;;;;;9.00;6.10;;;;;;;-128.00;-1.00;-1.00;133602;1274;1002401;-85
2023/03/12 08:40:36;;;;;;;13.60;6.80;;;;;;;-128.00;-1.00;-1.00;133501;1274;1002461;-85
2023/03/12 08:43:38;;;;;;;9.20;6.10;;;;;;;-128.00;-1.00;-1.00;133509;1274;1002433;-83
2023/03/12 08:46:41;;;;;;;12.20;5.60;;;;;;;-128.00;-1.00;-1.00;133390;1275;1003718;-85
2023/03/12 08:49:43;;;;;;;11.90;6.40;;;;;;;-128.00;-1.00;-1.00;133434;1274;1002844;-85
2023/03/12 08:52:46;;;;;;;10.70;6.80;;;;;;;-128.00;-1.00;-1.00;133884;1274;1002314;-85
2023/03/12 08:55:48;;;;;;;9.90;6.30;;;;;;;-128.00;-1.00;-1.00;133982;1274;1002179;-86
2023/03/12 08:58:50;;;;;;;11.70;7.00;;;;;;;-128.00;-1.00;-1.00;133873;1274;1002362;-85
2023/03/12 09:01:53;;;;;;;10.80;5.60;;;;;;;-128.00;-1.00;-1.00;133892;1274;1002675;-85
2023/03/12 09:04:55;;;;;;;12.60;6.70;;;;;;;-128.00;-1.00;-1.00;133867;1275;1002105;-85
2023/03/12 09:07:58;;;;;;;12.10;6.50;;;;;;;-128.00;-1.00;-1.00;133861;1275;1002493;-85
2023/03/12 09:11:01;;;;;;;13.90;5.50;;;;;;;-128.00;-1.00;-1.00;133903;1275;1002499;-85
2023/03/12 09:14:04;;;;;;;12.50;6.30;;;;;;;-128.00;-1.00;-1.00;133875;1275;1002633;-84
2023/03/12 09:17:06;;;;;;;9.10;5.40;;;;;;;-128.00;-1.00;-1.00;133837;1275;1002494;-85
2023/03/12 09:20:09;;;;;;;11.30;6.10;;;;;;;-128.00;-1.00;-1.00;133862;1275;1002153;-84
2023/03/12 09:23:11;;;;;;;6.20;4.60;;;;;;;-128.00;-1.00;-1.00;133810;1275;1002971;-84
2023/03/12 09:26:14;;;;;;;8.70;4.60;;;;;;;-128.00;-1.00;-1.00;133890;1275;1002355;-85
2023/03/12 09:29:16;;;;;;;11.20;6.00;;;;;;;-128.00;-1.00;-1.00;133885;1275;1001853;-83
2023/03/12 09:32:19;;;;;;;13.30;6.80;;;;;;;-128.00;-1.00;-1.00;133859;1275;1002353;-83
2023/03/12 09:35:21;;;;;;;7.00;4.60;;;;;;;-128.00;-1.00;-1.00;133865;1275;1002950;-84
2023/03/12 09:38:24;;;;;;;9.60;5.30;;;;;;;-128.00;-1.00;-1.00;133851;1275;1002089;-83
2023/03/12 09:41:26;;;;;;;8.60;5.10;;;;;;;-128.00;-1.00;-1.00;133839;1275;1001920;-83
2023/03/12 09:44:29;;;;;;;8.50;5.10;;;;;;;-128.00;-1.00;-1.00;133855;1275;1002377;-83
2023/03/12 09:47:31;;;;;;;15.90;8.50;;;;;;;-128.00;-1.00;-1.00;133847;1274;1002154;-83
2023/03/12 09:50:33;;;;;;;10.40;5.40;;;;;;;-128.00;-1.00;-1.00;133861;1275;1002195;-83
2023/03/12 09:53:36;;;;;;;12.60;4.90;;;;;;;-128.00;-1.00;-1.00;133837;1275;1002135;-82
2023/03/12 09:56:39;;;;;;;12.90;4.90;;;;;;;-128.00;-1.00;-1.00;133860;1275;1002312;-83
2023/03/12 09:59:41;;;;;;;9.30;4.80;;;;;;;-128.00;-1.00;-1.00;133893;1275;1002442;-83
2023/03/12 10:02:43;;;;;;;8.70;4.30;;;;;;;-128.00;-1.00;-1.00;133852;1275;1002048;-83
2023/03/12 10:05:46;;;;;;;8.50;5.20;;;;;;;-128.00;-1.00;-1.00;133843;1274;1001905;-83
2023/03/12 10:08:48;;;;;;;9.70;5.60;;;;;;;-128.00;-1.00;-1.00;133896;1275;1002349;-84
2023/03/12 10:11:51;;;;;;;11.30;4.60;;;;;;;-128.00;-1.00;-1.00;133864;1274;1002186;-83
2023/03/12 10:14:53;;;;;;;10.50;5.90;;;;;;;-128.00;-1.00;-1.00;133851;1275;1002650;-83
2023/03/12 10:17:55;;;;;;;9.40;5.60;;;;;;;-128.00;-1.00;-1.00;133863;1275;1002735;-83
2023/03/12 10:20:58;;;;;;;16.90;7.30;;;;;;;-128.00;-1.00;-1.00;133873;1275;1002415;-83
2023/03/12 10:24:00;;;;;;;13.60;6.10;;;;;;;-128.00;-1.00;-1.00;133835;1275;1002351;-83
2023/03/12 10:27:03;;;;;;;13.20;6.60;;;;;;;-128.00;-1.00;-1.00;133858;1275;1002223;-82
2023/03/12 10:30:05;;;;;;;14.60;8.10;;;;;;;-128.00;-1.00;-1.00;133890;1275;1001835;-82
2023/03/12 10:33:08;;;;;;;11.30;6.20;;;;;;;-128.00;-1.00;-1.00;133845;1275;1002358;-82
2023/03/12 10:36:10;;;;;;;11.60;5.80;;;;;;;-128.00;-1.00;-1.00;133858;1275;1002763;-82
2023/03/12 10:39:12;;;;;;;9.40;5.20;;;;;;;-128.00;-1.00;-1.00;133807;1275;1002041;-82
2023/03/12 10:42:15;;;;;;;8.80;4.20;;;;;;;-128.00;-1.00;-1.00;133816;1275;1002491;-83
2023/03/12 10:45:17;;;;;;;9.60;4.80;;;;;;;-128.00;-1.00;-1.00;133840;1275;1002337;-82
2023/03/12 10:48:20;;;;;;;8.90;4.60;;;;;;;-128.00;-1.00;-1.00;133855;1275;1002230;-83
2023/03/12 10:51:22;;;;;;;10.40;5.40;;;;;;;-128.00;-1.00;-1.00;133848;1275;1002062;-82
2023/03/12 10:54:24;;;;;;;9.80;5.20;;;;;;;-128.00;-1.00;-1.00;133841;1275;1002259;-83
2023/03/12 10:57:27;;;;;;;13.60;5.40;;;;;;;-128.00;-1.00;-1.00;133830;1274;1002364;-83
2023/03/12 11:00:30;;;;;;;13.30;6.00;;;;;;;-128.00;-1.00;-1.00;133839;1275;1002132;-83
2023/03/12 11:03:33;;;;;;;11.70;6.00;;;;;;;-128.00;-1.00;-1.00;133871;1275;1002648;-83
2023/03/12 11:06:36;;;;;;;8.70;4.70;;;;;;;-128.00;-1.00;-1.00;133839;1275;1001828;-83
2023/03/12 11:09:38;;;;;;;10.60;6.00;;;;;;;-128.00;-1.00;-1.00;133821;1275;1002290;-83
2023/03/12 11:12:41;;;;;;;7.60;5.10;;;;;;;-128.00;-1.00;-1.00;133802;1275;1001902;-83
2023/03/12 11:15:43;;;;;;;9.40;5.30;;;;;;;-128.00;-1.00;-1.00;133808;1275;1002290;-83
2023/03/12 11:18:45;;;;;;;12.30;5.70;;;;;;;-128.00;-1.00;-1.00;133804;1275;1002236;-82
2023/03/12 11:21:48;;;;;;;12.70;4.90;;;;;;;-128.00;-1.00;-1.00;133792;1274;1002674;-82
2023/03/12 11:24:50;;;;;;;9.30;5.00;;;;;;;-128.00;-1.00;-1.00;133757;1275;1002150;-82
2023/03/12 11:27:53;;;;;;;10.90;4.70;;;;;;;-128.00;-1.00;-1.00;133809;1275;1002182;-83
2023/03/12 11:30:55;;;;;;;7.20;4.30;;;;;;;-128.00;-1.00;-1.00;133797;1275;1002415;-82
2023/03/12 11:33:58;;;;;;;6.30;4.20;;;;;;;-128.00;-1.00;-1.00;133828;1275;1002746;-83
2023/03/12 11:37:03;;;;;;;7.90;3.90;;;;;;;-128.00;-1.00;-1.00;133850;1275;1002193;-83
2023/03/12 11:40:08;;;;;;;7.80;4.40;;;;;;;-128.00;-1.00;-1.00;133831;1274;1002541;-82
2023/03/12 11:43:11;;;;;;;8.20;4.20;;;;;;;-128.00;-1.00;-1.00;133852;1274;1002589;-83
2023/03/12 11:46:13;;;;;;;9.30;4.20;;;;;;;-128.00;-1.00;-1.00;133861;1274;1002293;-83
2023/03/12 11:49:16;;;;;;;10.10;5.00;;;;;;;-128.00;-1.00;-1.00;133832;1274;1002348;-84
2023/03/12 11:52:18;;;;;;;9.70;4.50;;;;;;;-128.00;-1.00;-1.00;133849;1274;1002193;-83
2023/03/12 11:55:21;;;;;;;14.00;5.50;;;;;;;-128.00;-1.00;-1.00;133872;1274;1002061;-83
2023/03/12 11:58:23;;;;;;;10.80;4.80;;;;;;;-128.00;-1.00;-1.00;133868;1274;1002147;-83
2023/03/12 12:01:26;;;;;;;9.90;4.30;;;;;;;-128.00;-1.00;-1.00;133838;1274;1002101;-82
2023/03/12 12:04:28;;;;;;;6.10;4.00;;;;;;;-128.00;-1.00;-1.00;133820;1274;1002315;-81
2023/03/12 12:07:30;;;;;;;7.20;3.90;;;;;;;-128.00;-1.00;-1.00;133819;1274;1002286;-82
2023/03/12 12:10:33;;;;;;;8.80;5.40;;;;;;;-128.00;-1.00;-1.00;133785;1274;1002724;-82
2023/03/12 12:13:35;;;;;;;7.80;4.60;;;;;;;-128.00;-1.00;-1.00;133839;1274;1001696;-82
2023/03/12 12:16:38;;;;;;;8.80;4.70;;;;;;;-128.00;-1.00;-1.00;133871;1274;1002220;-82
2023/03/12 12:19:40;;;;;;;9.10;4.50;;;;;;;-128.00;-1.00;-1.00;133860;1274;1001997;-81
2023/03/12 12:22:44;;;;;;;5.10;3.60;;;;;;;-128.00;-1.00;-1.00;133880;1274;1002323;-82
2023/03/12 12:25:46;;;;;;;13.50;5.70;;;;;;;-128.00;-1.00;-1.00;133829;1274;1002031;-82
2023/03/12 12:28:49;;;;;;;9.20;3.80;;;;;;;-128.00;-1.00;-1.00;133846;1274;1002476;-82
2023/03/12 12:31:51;;;;;;;6.00;3.30;;;;;;;-128.00;-1.00;-1.00;133856;1274;1002002;-82
2023/03/12 12:34:53;;;;;;;8.40;4.10;;;;;;;-128.00;-1.00;-1.00;133845;1274;1002078;-82
2023/03/12 12:37:56;;;;;;;8.10;4.00;;;;;;;-128.00;-1.00;-1.00;133864;1274;1002965;-82
2023/03/12 12:40:58;;;;;;;7.80;3.90;;;;;;;-128.00;-1.00;-1.00;133853;1274;1002186;-81
2023/03/12 12:44:01;;;;;;;6.70;4.50;;;;;;;-128.00;-1.00;-1.00;133857;1274;1002284;-82
2023/03/12 12:47:04;;;;;;;7.70;4.20;;;;;;;-128.00;-1.00;-1.00;133830;1274;1002295;-82
2023/03/12 12:50:06;;;;;;;4.90;3.30;;;;;;;-128.00;-1.00;-1.00;133841;1274;1001925;-82
2023/03/12 12:53:09;;;;;;;9.80;4.70;;;;;;;-128.00;-1.00;-1.00;133853;1274;1002250;-82
2023/03/12 12:56:11;;;;;;;16.40;5.30;;;;;;;-128.00;-1.00;-1.00;133850;1274;1002177;-82
2023/03/12 12:59:13;;;;;;;8.10;3.80;;;;;;;-128.00;-1.00;-1.00;133834;1274;1002527;-83
2023/03/12 13:02:16;;;;;;;8.40;4.00;;;;;;;-128.00;-1.00;-1.00;133847;1274;1003139;-82
2023/03/12 13:05:19;;;;;;;8.10;4.00;;;;;;;-128.00;-1.00;-1.00;133839;1274;1002127;-83
2023/03/12 13:08:21;;;;;;;7.00;3.40;;;;;;;-128.00;-1.00;-1.00;133824;1274;1002464;-81
2023/03/12 13:11:24;;;;;;;6.10;3.80;;;;;;;-128.00;-1.00;-1.00;133855;1274;1001881;-81
2023/03/12 13:14:26;;;;;;;6.80;4.70;;;;;;;-128.00;-1.00;-1.00;133842;1274;1001896;-81
2023/03/12 13:17:28;;;;;;;6.10;4.20;;;;;;;-128.00;-1.00;-1.00;133830;1274;1002247;-81
2023/03/12 13:20:31;;;;;;;8.80;3.60;;;;;;;-128.00;-1.00;-1.00;133837;1274;1001920;-81
2023/03/12 13:23:33;;;;;;;7.40;3.70;;;;;;;-128.00;-1.00;-1.00;133836;1274;1002125;-81
2023/03/12 13:26:36;;;;;;;7.80;4.20;;;;;;;-128.00;-1.00;-1.00;133797;1275;1002540;-82
2023/03/12 13:29:38;;;;;;;6.20;3.70;;;;;;;-128.00;-1.00;-1.00;133813;1275;1002204;-82
2023/03/12 13:32:40;;;;;;;6.10;3.70;;;;;;;-128.00;-1.00;-1.00;133860;1274;1002806;-82
2023/03/12 13:35:43;;;;;;;5.90;3.50;;;;;;;-128.00;-1.00;-1.00;133890;1274;1002231;-82
2023/03/12 13:38:45;;;;;;;6.60;3.50;;;;;;;-128.00;-1.00;-1.00;133831;1275;1002624;-82
2023/03/12 13:41:48;;;;;;;6.80;3.80;;;;;;;-128.00;-1.00;-1.00;133799;1275;1002554;-82
2023/03/12 13:44:51;;;;;;;8.00;4.30;;;;;;;-128.00;-1.00;-1.00;133848;1275;1003006;-82
2023/03/12 13:47:53;;;;;;;9.40;4.50;;;;;;;-128.00;-1.00;-1.00;133862;1275;1002205;-82